»·PEaware :: AUZ081 PHNL-KSFO

AUZ081 :: PHNL-KSFO

FLIGHT INFORMATION

Flight Status: Arrived
Operator:
Australian Airlines
More flights by this operator :: More flights under this callsign
Pilot: Kim E. (65)
Aircraft: BOEING 747-400 (WINGLETS)
(B744)
More flights by this aircraft type
Origin: PHNL Honolulu Intl
United States
Destination: KSFO San Francisco Intl
United States
More flights between these airports :: More routes between these airports
Route: MKK4 APACK R463 ALCOA SAU
File this flight plan on PilotEdge
Remarks: / V /
Altitude:
(Current/Filed)
40,000ft
Speed:
(Current/Filed)
450kts
Departed: 13-Feb-13 10:20 AM
Arrived: 13-Feb-13 03:17 PM
Distance/Time
Traveled:
2081nm/4:57
Distance/Time
To Go:
Arrived

Flight Plot

Page will automatically refresh every two minutes.


Map Options




Map Legend


Flown Route
Filed Route
Departure Airport
Arrival Airport
Navaid (VOR, NDB)
Fix

Horizontal Profiles

Position Reports

Time Latitude Longitude Heading Altitude Ground
Speed
13-Feb-13 09:37 21.328775 -157.925009 0 25ft 0kts
13-Feb-13 09:38 21.328776 -157.925009 0 25ft 0kts
13-Feb-13 09:39 21.328776 -157.925009 0 25ft 0kts
13-Feb-13 09:40 21.328776 -157.925009 0 25ft 0kts
13-Feb-13 09:41 21.328777 -157.925009 0 25ft 0kts
13-Feb-13 09:42 21.328777 -157.925009 0 25ft 0kts
13-Feb-13 09:43 21.328777 -157.925009 0 25ft 0kts
13-Feb-13 09:44 21.328778 -157.925009 0 25ft 0kts
13-Feb-13 09:45 21.328778 -157.925009 0 25ft 0kts
13-Feb-13 09:46 21.328778 -157.925009 0 25ft 0kts
13-Feb-13 09:47 21.328779 -157.925009 0 25ft 0kts
13-Feb-13 09:48 21.328779 -157.925009 0 25ft 0kts
13-Feb-13 09:49 21.328779 -157.925009 0 25ft 0kts
13-Feb-13 09:50 21.328780 -157.925009 0 25ft 0kts
13-Feb-13 09:51 21.328780 -157.925009 0 25ft 0kts
13-Feb-13 09:52 21.328780 -157.925009 0 25ft 0kts
13-Feb-13 09:53 21.328780 -157.925009 0 25ft 0kts
13-Feb-13 09:54 21.328781 -157.925009 0 25ft 0kts
13-Feb-13 09:55 21.328781 -157.925009 0 25ft 0kts
13-Feb-13 09:56 21.328563 -157.925010 0 25ft 2kts
13-Feb-13 09:57 21.327924 -157.924855 315 25ft 2kts
13-Feb-13 09:58 21.327734 -157.924381 270 25ft 0kts
13-Feb-13 09:59 21.327734 -157.924381 270 25ft 0kts
13-Feb-13 10:00 21.327734 -157.924382 270 25ft 0kts
13-Feb-13 10:01 21.327734 -157.924383 270 25ft 0kts
13-Feb-13 10:02 21.327734 -157.924384 270 25ft 0kts
13-Feb-13 10:03 21.327734 -157.924387 270 25ft 0kts
13-Feb-13 10:04 21.327624 -157.925279 237 25ft 6kts
13-Feb-13 10:05 21.327169 -157.927695 270 25ft 11kts
13-Feb-13 10:06 21.327440 -157.930959 268 25ft 11kts
13-Feb-13 10:07 21.327406 -157.934228 268 25ft 10kts
13-Feb-13 10:08 21.327422 -157.937477 270 25ft 10kts
13-Feb-13 10:09 21.327436 -157.939290 270 25ft 3kts
13-Feb-13 10:10 21.326065 -157.941248 211 25ft 11kts
13-Feb-13 10:11 21.324018 -157.942577 210 25ft 5kts
13-Feb-13 10:12 21.321868 -157.943952 210 25ft 12kts
13-Feb-13 10:13 21.319210 -157.945638 209 25ft 10kts
13-Feb-13 10:14 21.316647 -157.946655 174 25ft 9kts
13-Feb-13 10:15 21.313893 -157.946299 172 25ft 10kts
13-Feb-13 10:16 21.311088 -157.945947 173 25ft 10kts
13-Feb-13 10:17 21.308361 -157.945674 178 25ft 6kts
13-Feb-13 10:18 21.307951 -157.945675 180 25ft 0kts
13-Feb-13 10:19 21.307251 -157.945680 180 25ft 4kts
13-Feb-13 10:20 21.306787 -157.945091 88 25ft 3kts
13-Feb-13 10:21 21.306796 -157.928000 88 87ft 178kts
13-Feb-13 10:22 21.305513 -157.869941 90 2816ft 234kts
13-Feb-13 10:23 21.304002 -157.794705 90 4966ft 259kts
13-Feb-13 10:24 21.303042 -157.717903 90 4978ft 256kts
13-Feb-13 10:25 21.298280 -157.642047 101 4953ft 258kts
13-Feb-13 10:26 21.274970 -157.569189 107 4939ft 258kts
13-Feb-13 10:27 21.250948 -157.496789 106 4970ft 257kts
13-Feb-13 10:28 21.226904 -157.423535 107 5038ft 258kts
13-Feb-13 10:29 21.202901 -157.350874 107 5035ft 258kts
13-Feb-13 10:30 21.178451 -157.278646 108 5034ft 260kts
13-Feb-13 10:31 21.153993 -157.206084 95 5013ft 257kts
13-Feb-13 10:32 21.197596 -157.153128 23 5057ft 259kts
13-Feb-13 10:33 21.266922 -157.130781 17 6390ft 268kts
13-Feb-13 10:34 21.341015 -157.109330 17 10154ft 288kts
13-Feb-13 10:35 21.431454 -157.083304 17 12143ft 381kts
13-Feb-13 10:36 21.533174 -157.054170 17 16657ft 392kts
13-Feb-13 10:37 21.642871 -157.022629 17 19740ft 424kts
13-Feb-13 10:38 21.751773 -156.991126 12 23684ft 417kts
13-Feb-13 10:39 21.867355 -156.957905 11 26207ft 434kts
13-Feb-13 10:40 21.985244 -156.923841 11 28551ft 446kts
13-Feb-13 10:41 22.107382 -156.888466 11 30600ft 456kts
13-Feb-13 10:42 22.230073 -156.852942 11 32626ft 458kts
13-Feb-13 10:43 22.352667 -156.817256 10 34567ft 455kts
13-Feb-13 10:44 22.474175 -156.781971 10 36083ft 455kts
13-Feb-13 10:45 22.592328 -156.747640 10 38279ft 431kts
13-Feb-13 10:46 22.707790 -156.713921 9 39140ft 433kts
13-Feb-13 10:47 22.824134 -156.679985 9 39928ft 433kts
13-Feb-13 10:48 22.940697 -156.645778 9 40199ft 432kts
13-Feb-13 10:49 23.056914 -156.611598 9 40213ft 433kts
13-Feb-13 10:50 23.173571 -156.577319 9 40218ft 433kts
13-Feb-13 10:51 23.289669 -156.543077 9 40219ft 433kts
13-Feb-13 10:52 23.406345 -156.508585 9 40221ft 433kts
13-Feb-13 10:53 23.522355 -156.474439 9 40221ft 433kts
13-Feb-13 10:54 23.638624 -156.440036 9 40221ft 433kts
13-Feb-13 10:55 23.755119 -156.405415 9 40221ft 433kts
13-Feb-13 10:56 23.871208 -156.370863 9 40221ft 433kts
13-Feb-13 10:57 23.987770 -156.336150 9 40221ft 433kts
13-Feb-13 10:58 24.085047 -156.252632 42 40214ft 467kts
13-Feb-13 10:59 24.161717 -156.136869 46 40218ft 471kts
13-Feb-13 11:00 24.236521 -156.020685 46 40219ft 470kts
13-Feb-13 11:01 24.312665 -155.902701 46 40220ft 470kts
13-Feb-13 11:02 24.387566 -155.785867 46 40221ft 470kts
13-Feb-13 11:03 24.462830 -155.668532 46 40221ft 470kts
13-Feb-13 11:04 24.538281 -155.550634 46 40221ft 470kts
13-Feb-13 11:05 24.612793 -155.433745 47 40221ft 470kts
13-Feb-13 11:06 24.688058 -155.315465 47 40221ft 470kts
13-Feb-13 11:07 24.763120 -155.197017 47 40221ft 471kts
13-Feb-13 11:08 24.837576 -155.078454 47 40221ft 471kts
13-Feb-13 11:09 24.911387 -154.960546 47 40221ft 471kts
13-Feb-13 11:10 24.985868 -154.842005 47 40221ft 471kts
13-Feb-13 11:11 25.060044 -154.723009 47 40221ft 471kts
13-Feb-13 11:12 25.134484 -154.603672 47 40221ft 471kts
13-Feb-13 11:13 25.208430 -154.484759 47 40222ft 471kts
13-Feb-13 11:14 25.282858 -154.364519 47 40222ft 472kts
13-Feb-13 11:15 25.356750 -154.245431 47 40223ft 472kts
13-Feb-13 11:16 25.430888 -154.125013 47 40224ft 472kts
13-Feb-13 11:17 25.504798 -154.004972 47 40225ft 472kts
13-Feb-13 11:18 25.578798 -153.884822 47 40226ft 472kts
13-Feb-13 11:19 25.652428 -153.764250 47 40227ft 472kts
13-Feb-13 11:20 25.726409 -153.643451 47 40227ft 472kts
13-Feb-13 11:21 25.799855 -153.522631 47 40227ft 473kts
13-Feb-13 11:22 25.873530 -153.401474 47 40227ft 472kts
13-Feb-13 11:23 25.946473 -153.281264 48 40227ft 473kts
13-Feb-13 11:24 26.019497 -153.160094 48 40227ft 473kts
13-Feb-13 11:25 26.091038 -153.041728 48 40227ft 473kts
13-Feb-13 11:26 26.164335 -152.919610 48 40227ft 473kts
13-Feb-13 11:27 26.236966 -152.798265 47 40227ft 472kts
13-Feb-13 11:28 26.310015 -152.676406 48 40227ft 473kts
13-Feb-13 11:29 26.382729 -152.554154 48 40227ft 473kts
13-Feb-13 11:30 26.455710 -152.431887 48 40227ft 473kts
13-Feb-13 11:31 26.528218 -152.309897 48 40227ft 473kts
13-Feb-13 11:32 26.600830 -152.186921 48 40227ft 473kts
13-Feb-13 11:33 26.673382 -152.064358 48 40227ft 473kts
13-Feb-13 11:34 26.745494 -151.941474 48 40227ft 473kts
13-Feb-13 11:35 26.817869 -151.818370 48 40227ft 473kts
13-Feb-13 11:36 26.889947 -151.695071 48 40227ft 473kts
13-Feb-13 11:37 26.961792 -151.571579 48 40227ft 473kts
13-Feb-13 11:38 27.033824 -151.448395 48 40227ft 473kts
13-Feb-13 11:39 27.105830 -151.324053 48 40227ft 473kts
13-Feb-13 11:40 27.177119 -151.201059 48 40227ft 473kts
13-Feb-13 11:41 27.248771 -151.076824 48 40227ft 474kts
13-Feb-13 11:42 27.320141 -150.952424 49 40227ft 474kts
13-Feb-13 11:43 27.392120 -150.827426 49 40227ft 474kts
13-Feb-13 11:44 27.463054 -150.703160 49 40227ft 474kts
13-Feb-13 11:45 27.534225 -150.578883 48 40227ft 473kts
13-Feb-13 11:46 27.605701 -150.453488 49 40227ft 474kts
13-Feb-13 11:47 27.676512 -150.328375 49 40227ft 474kts
13-Feb-13 11:48 27.747885 -150.202654 49 40219ft 477kts
13-Feb-13 11:49 27.818898 -150.076425 49 40219ft 471kts
13-Feb-13 11:50 27.889785 -149.950958 52 40096ft 482kts
13-Feb-13 11:51 27.962911 -149.820070 52 40099ft 497kts
13-Feb-13 11:52 28.036732 -149.687685 53 40093ft 501kts
13-Feb-13 11:53 28.111644 -149.553658 53 40088ft 501kts
13-Feb-13 11:54 28.184797 -149.421844 53 40087ft 501kts
13-Feb-13 11:55 28.259393 -149.287441 53 40086ft 501kts
13-Feb-13 11:56 28.333561 -149.152983 53 40085ft 501kts
13-Feb-13 11:57 28.407418 -149.018634 53 40085ft 501kts
13-Feb-13 11:58 28.480946 -148.884817 53 40085ft 501kts
13-Feb-13 11:59 28.554900 -148.750096 53 40085ft 501kts
13-Feb-13 12:00 28.627990 -148.615636 53 40085ft 501kts
13-Feb-13 12:01 28.701892 -148.479404 53 40086ft 501kts
13-Feb-13 12:02 28.775016 -148.344958 53 40085ft 501kts
13-Feb-13 12:12 29.498377 -146.985175 54 40097ft 499kts
13-Feb-13 12:13 29.569210 -146.849819 53 40111ft 497kts
13-Feb-13 12:14 29.641144 -146.712056 53 40103ft 496kts
13-Feb-13 12:15 29.710634 -146.577698 53 40134ft 491kts
13-Feb-13 12:16 29.780704 -146.442804 53 40133ft 489kts
13-Feb-13 12:17 29.850252 -146.307676 53 40138ft 490kts
13-Feb-13 12:18 29.919205 -146.173368 52 40140ft 489kts
13-Feb-13 12:19 29.988609 -146.038019 53 40141ft 489kts
13-Feb-13 12:20 30.057165 -145.903179 53 40141ft 489kts
13-Feb-13 12:21 30.126376 -145.767586 53 40141ft 489kts
13-Feb-13 12:22 30.194726 -145.632364 53 40141ft 489kts
13-Feb-13 12:23 30.263312 -145.496655 53 40142ft 489kts
13-Feb-13 12:24 30.332030 -145.360362 53 40141ft 489kts
13-Feb-13 12:25 30.400393 -145.223571 53 40142ft 489kts
13-Feb-13 12:26 30.468731 -145.087425 53 40142ft 489kts
13-Feb-13 12:27 30.536550 -144.951297 53 40142ft 489kts
13-Feb-13 12:28 30.604516 -144.814784 53 40142ft 489kts
13-Feb-13 12:29 30.672008 -144.678260 53 40142ft 489kts
13-Feb-13 12:30 30.739686 -144.540428 53 40142ft 489kts
13-Feb-13 12:31 30.807383 -144.403380 54 40142ft 489kts
13-Feb-13 12:32 30.874585 -144.265648 54 40142ft 489kts
13-Feb-13 12:33 30.941893 -144.127987 54 40142ft 489kts
13-Feb-13 12:34 31.008829 -143.990035 54 40142ft 490kts
13-Feb-13 12:35 31.075828 -143.851240 54 40142ft 489kts
13-Feb-13 12:36 31.142345 -143.713898 54 40142ft 490kts
13-Feb-13 12:37 31.209041 -143.574679 54 40142ft 490kts
13-Feb-13 12:38 31.275914 -143.435645 54 40142ft 490kts
13-Feb-13 12:39 31.342202 -143.296490 54 40142ft 490kts
13-Feb-13 12:40 31.408101 -143.157737 54 40142ft 489kts
13-Feb-13 12:41 31.474447 -143.017982 54 40142ft 490kts
13-Feb-13 12:42 31.540374 -142.878287 54 40142ft 490kts
13-Feb-13 12:43 31.606102 -142.739130 54 40142ft 490kts
13-Feb-13 12:44 31.671723 -142.598293 55 40132ft 490kts
13-Feb-13 12:45 31.738174 -142.458717 60 40347ft 480kts
13-Feb-13 12:46 31.800349 -142.323069 61 40431ft 473kts
13-Feb-13 12:47 31.862107 -142.189384 61 40430ft 472kts
13-Feb-13 12:48 31.925019 -142.053056 61 40434ft 471kts
13-Feb-13 12:49 31.987575 -141.917691 61 40435ft 471kts
13-Feb-13 12:50 32.049804 -141.781267 61 40436ft 471kts
13-Feb-13 12:51 32.111351 -141.645596 61 40436ft 471kts
13-Feb-13 12:52 32.173512 -141.508979 61 40437ft 471kts
13-Feb-13 12:53 32.235045 -141.373052 61 40436ft 471kts
13-Feb-13 12:54 32.296407 -141.236313 61 40436ft 471kts
13-Feb-13 12:55 32.358048 -141.099752 61 40436ft 471kts
13-Feb-13 12:56 32.419141 -140.962715 62 40436ft 471kts
13-Feb-13 12:57 32.480468 -140.825236 61 40437ft 471kts
13-Feb-13 12:58 32.541642 -140.688115 62 40437ft 471kts
13-Feb-13 12:59 32.602065 -140.551048 62 40436ft 471kts
13-Feb-13 13:00 32.663591 -140.412225 62 40437ft 471kts
13-Feb-13 13:01 32.723976 -140.274232 62 40437ft 471kts
13-Feb-13 13:02 32.784250 -140.136329 62 40437ft 471kts
13-Feb-13 13:03 32.844504 -139.998233 62 40437ft 471kts
13-Feb-13 13:04 32.894576 -139.882361 62 40437ft 471kts
13-Feb-13 13:05 32.964659 -139.720756 62 40437ft 471kts
13-Feb-13 13:06 33.024011 -139.582496 62 40437ft 471kts
13-Feb-13 13:07 33.073333 -139.467026 62 40437ft 471kts
13-Feb-13 13:08 33.142927 -139.304947 62 40437ft 471kts
13-Feb-13 13:09 33.202140 -139.165155 62 40437ft 471kts
13-Feb-13 13:10 33.251603 -139.048907 62 40437ft 471kts
13-Feb-13 13:11 33.310451 -138.909470 63 40437ft 471kts
13-Feb-13 13:12 33.368916 -138.769815 63 40437ft 471kts
13-Feb-13 13:13 33.437569 -138.606629 63 40437ft 471kts
13-Feb-13 13:14 33.486148 -138.489717 63 40437ft 471kts
13-Feb-13 13:15 33.544926 -138.349190 63 40437ft 471kts
13-Feb-13 13:16 33.613006 -138.184748 63 40437ft 471kts
13-Feb-13 13:17 33.660974 -138.067786 63 40437ft 471kts
13-Feb-13 13:18 33.728470 -137.904027 63 40437ft 471kts
13-Feb-13 13:19 33.776543 -137.785960 63 40437ft 471kts
13-Feb-13 13:20 33.834280 -137.644093 63 40437ft 471kts
13-Feb-13 13:21 33.891387 -137.503531 63 40437ft 471kts
13-Feb-13 13:22 33.948597 -137.361274 63 40437ft 471kts
13-Feb-13 13:23 34.005824 -137.219640 63 40437ft 471kts
13-Feb-13 13:24 34.062628 -137.077367 64 40437ft 470kts
13-Feb-13 13:25 34.119401 -136.934655 63 40437ft 470kts
13-Feb-13 13:26 34.175696 -136.793411 64 40437ft 470kts
13-Feb-13 13:27 34.232238 -136.649765 64 40437ft 470kts
13-Feb-13 13:28 34.288436 -136.507612 64 40437ft 470kts
13-Feb-13 13:29 34.344563 -136.364167 64 40437ft 470kts
13-Feb-13 13:30 34.400112 -136.221242 64 40437ft 470kts
13-Feb-13 13:31 34.456234 -136.077651 64 40437ft 470kts
13-Feb-13 13:32 34.511630 -135.934151 64 40437ft 470kts
13-Feb-13 13:33 34.567284 -135.790644 64 40437ft 470kts
13-Feb-13 13:34 34.622227 -135.647226 65 40437ft 470kts
13-Feb-13 13:35 34.677101 -135.502928 65 40437ft 470kts
13-Feb-13 13:36 34.732397 -135.358330 65 40437ft 470kts
13-Feb-13 13:37 34.786917 -135.213836 65 40437ft 470kts
13-Feb-13 13:38 34.841547 -135.069277 65 40437ft 470kts
13-Feb-13 13:39 34.896032 -134.924014 65 40437ft 470kts
13-Feb-13 13:40 34.950192 -134.779011 65 40437ft 470kts
13-Feb-13 13:41 35.003908 -134.634749 65 40437ft 470kts
13-Feb-13 13:42 35.057649 -134.488653 65 40437ft 470kts
13-Feb-13 13:43 35.110990 -134.342885 65 40437ft 470kts
13-Feb-13 13:44 35.164842 -134.196892 65 40437ft 470kts
13-Feb-13 13:45 35.217580 -134.051708 66 40437ft 470kts
13-Feb-13 13:46 35.270848 -133.905130 65 40437ft 470kts
13-Feb-13 13:47 35.324025 -133.758186 66 40437ft 470kts
13-Feb-13 13:48 35.376105 -133.612612 66 40437ft 470kts
13-Feb-13 13:49 35.429073 -133.465583 66 40437ft 470kts
13-Feb-13 13:50 35.480513 -133.320729 66 40437ft 470kts
13-Feb-13 13:51 35.532853 -133.173654 65 40437ft 470kts
13-Feb-13 13:52 35.585412 -133.025548 66 40437ft 470kts
13-Feb-13 13:53 35.636648 -132.878968 66 40437ft 470kts
13-Feb-13 13:54 35.688499 -132.731521 66 40437ft 470kts
13-Feb-13 13:55 35.740033 -132.583034 66 40437ft 470kts
13-Feb-13 13:56 35.791088 -132.434944 66 40437ft 470kts
13-Feb-13 13:57 35.842392 -132.287036 66 40437ft 470kts
13-Feb-13 13:58 35.893114 -132.138394 67 40437ft 470kts
13-Feb-13 13:59 35.944038 -131.989907 66 40437ft 470kts
13-Feb-13 14:00 35.994646 -131.840637 67 40437ft 470kts
13-Feb-13 14:01 36.044668 -131.691766 67 40437ft 470kts
13-Feb-13 14:02 36.095049 -131.543166 67 40437ft 470kts
13-Feb-13 14:03 36.144746 -131.393833 67 40437ft 470kts
13-Feb-13 14:04 36.194691 -131.244339 67 40437ft 470kts
13-Feb-13 14:05 36.244390 -131.094270 67 40437ft 470kts
13-Feb-13 14:06 36.293560 -130.944228 67 40437ft 470kts
13-Feb-13 14:07 36.342721 -130.795520 67 40434ft 469kts
13-Feb-13 14:08 36.391468 -130.645494 67 40425ft 467kts
13-Feb-13 14:09 36.439727 -130.497051 67 40413ft 466kts
13-Feb-13 14:10 36.487946 -130.347968 68 40398ft 465kts
13-Feb-13 14:11 36.536012 -130.198316 68 40407ft 465kts
13-Feb-13 14:12 36.584747 -130.047205 69 40301ft 478kts
13-Feb-13 14:13 36.633319 -129.893884 69 40281ft 483kts
13-Feb-13 14:14 36.682073 -129.739657 69 40294ft 476kts
13-Feb-13 14:15 36.731273 -129.583879 69 40285ft 478kts
13-Feb-13 14:16 36.779457 -129.428907 69 40279ft 482kts
13-Feb-13 14:17 36.827998 -129.273993 69 40275ft 481kts
13-Feb-13 14:18 36.876256 -129.117548 70 40274ft 481kts
13-Feb-13 14:19 36.924085 -128.962158 69 40273ft 481kts
13-Feb-13 14:20 36.972188 -128.805587 70 40273ft 481kts
13-Feb-13 14:21 37.019398 -128.649705 70 40273ft 481kts
13-Feb-13 14:22 37.067216 -128.492913 70 40273ft 481kts
13-Feb-13 14:23 37.114111 -128.336386 70 40281ft 482kts
13-Feb-13 14:24 37.161262 -128.178981 70 40276ft 481kts
13-Feb-13 14:25 37.207984 -128.022517 71 40272ft 481kts
13-Feb-13 14:26 37.254048 -127.866186 71 40285ft 475kts
13-Feb-13 14:27 37.300517 -127.709465 71 40271ft 479kts
13-Feb-13 14:28 37.346781 -127.550948 71 40266ft 480kts
13-Feb-13 14:29 37.392269 -127.394792 71 40283ft 475kts
13-Feb-13 14:30 37.438007 -127.237112 71 40277ft 475kts
13-Feb-13 14:31 37.483354 -127.079726 71 40270ft 483kts
13-Feb-13 14:32 37.528505 -126.922830 71 40284ft 475kts
13-Feb-13 14:33 37.573512 -126.764199 71 40272ft 481kts
13-Feb-13 14:34 37.618065 -126.605947 70 40277ft 490kts
13-Feb-13 14:35 37.663849 -126.444428 69 40270ft 488kts
13-Feb-13 14:36 37.709075 -126.282165 68 40248ft 486kts
13-Feb-13 14:37 37.753539 -126.121917 68 40252ft 478kts
13-Feb-13 14:38 37.795328 -125.971015 68 40319ft 475kts
13-Feb-13 14:39 37.830500 -125.807981 81 40248ft 483kts
13-Feb-13 14:40 37.836881 -125.636885 86 40236ft 487kts
13-Feb-13 14:41 37.839658 -125.471474 86 40298ft 482kts
13-Feb-13 14:42 37.842756 -125.302199 86 40319ft 481kts
13-Feb-13 14:43 37.845257 -125.132360 87 40317ft 481kts
13-Feb-13 14:44 37.847420 -124.963967 86 40321ft 481kts
13-Feb-13 14:45 37.849916 -124.794251 87 40325ft 481kts
13-Feb-13 14:46 37.851544 -124.626077 87 40329ft 482kts
13-Feb-13 14:47 37.853467 -124.456285 87 40330ft 481kts
13-Feb-13 14:48 37.854672 -124.286654 87 39872ft 484kts
13-Feb-13 14:49 37.855643 -124.118599 87 37178ft 469kts
13-Feb-13 14:50 37.856885 -123.957161 87 34798ft 452kts
13-Feb-13 14:51 37.857316 -123.800702 87 32471ft 437kts
13-Feb-13 14:52 37.857962 -123.648599 87 30210ft 426kts
13-Feb-13 14:53 37.858216 -123.502032 86 28176ft 408kts
13-Feb-13 14:54 37.857961 -123.360470 87 26121ft 394kts
13-Feb-13 14:55 37.858110 -123.224801 86 24121ft 382kts
13-Feb-13 14:56 37.857853 -123.092054 86 22091ft 372kts
13-Feb-13 14:57 37.857329 -122.963274 86 20141ft 360kts
13-Feb-13 14:58 37.856724 -122.838866 86 18200ft 348kts
13-Feb-13 14:59 37.856121 -122.721770 86 16295ft 337kts
13-Feb-13 15:00 37.855541 -122.603506 87 14025ft 337kts
13-Feb-13 15:01 37.870127 -122.490170 65 11776ft 327kts
13-Feb-13 15:02 37.907728 -122.390797 60 10240ft 302kts
13-Feb-13 15:03 37.942658 -122.302470 60 9043ft 265kts
13-Feb-13 15:04 37.975444 -122.219808 60 7379ft 262kts
13-Feb-13 15:05 38.015299 -122.150577 19 5976ft 227kts
13-Feb-13 15:06 38.021071 -122.095775 146 4888ft 192kts
13-Feb-13 15:07 37.981175 -122.123968 227 4366ft 165kts
13-Feb-13 15:08 37.942790 -122.156629 210 3833ft 166kts
13-Feb-13 15:09 37.902201 -122.183932 209 3301ft 165kts
13-Feb-13 15:10 37.861824 -122.210977 210 2919ft 162kts
13-Feb-13 15:11 37.822889 -122.236997 210 2898ft 158kts
13-Feb-13 15:12 37.784245 -122.262762 209 2899ft 157kts
13-Feb-13 15:13 37.745574 -122.288516 210 2565ft 151kts
13-Feb-13 15:14 37.709360 -122.312621 210 1781ft 143kts
13-Feb-13 15:15 37.673886 -122.336247 209 1058ft 140kts
13-Feb-13 15:16 37.638707 -122.359559 209 282ft 144kts
13-Feb-13 15:17 37.610531 -122.378255 208 25ft 50kts
13-Feb-13 15:18 37.608769 -122.382007 295 25ft 11kts
13-Feb-13 15:19 37.609140 -122.382979 295 25ft 3kts
13-Feb-13 15:20 37.610257 -122.383936 28 25ft 9kts
13-Feb-13 15:21 37.612383 -122.382452 27 25ft 9kts
13-Feb-13 15:22 37.612860 -122.382907 271 25ft 2kts
13-Feb-13 15:23 37.612862 -122.382979 272 25ft 0kts
13-Feb-13 15:24 37.612862 -122.382979 272 25ft 0kts
13-Feb-13 15:25 37.612862 -122.382979 272 25ft 0kts
13-Feb-13 15:26 37.612862 -122.382979 272 25ft 0kts
13-Feb-13 15:27 37.612862 -122.382979 272 25ft 0kts
13-Feb-13 15:28 37.612862 -122.382979 272 25ft 0kts

Navigation Log

Ident Type
1. PHNL Airport
2. MAGGI Fix
3. SERYU Fix
4. TOADS Fix
5. APACK Fix
6. AUNTI Fix
7. ADOPE Fix
8. AXELE Fix
9. ADTIL Fix
10. ALLBE Fix
11. ALCOA Fix
12. SAU Navaid
13. KSFO Airport